This is the latest recevied weather packets stored in our database for station/object SQ5RTW-1. If no packets are shown the sender has not sent any weather packets the latest 1 day(s).
| Time | Temp. | Humidity | Pressure | Rain* | Wind** | Luminosity | Snow |
|---|---|---|---|---|---|---|---|
| 1778050876 | 20.56° C | 58% | 1008.3 hPa | - | - | - | - |
| 1778049975 | 18.89° C | 66% | 1008.5 hPa | - | - | - | - |
| 1778049060 | 16.67° C | 69% | 1008.6 hPa | - | - | - | - |
| 1778048159 | 16.11° C | 70% | 1008.8 hPa | - | - | - | - |
| 1778047258 | 15° C | 72% | 1008.8 hPa | - | - | - | - |
| 1778046357 | 15° C | 73% | 1009 hPa | - | - | - | - |
| 1778045456 | 14.44° C | 72% | 1008.6 hPa | - | - | - | - |
| 1778041853 | 12.78° C | 72% | 1008.8 hPa | - | - | - | - |
| 1778040952 | 12.22° C | 72% | 1008.9 hPa | - | - | - | - |
| 1778040051 | 12.22° C | 73% | 1009 hPa | - | - | - | - |
| 1778039150 | 12.22° C | 72% | 1008.9 hPa | - | - | - | - |
| 1778038249 | 11.67° C | 73% | 1008.9 hPa | - | - | - | - |
| 1778037348 | 11.67° C | 73% | 1009 hPa | - | - | - | - |
| 1778036447 | 11.11° C | 74% | 1008.9 hPa | - | - | - | - |
| 1778035546 | 11.11° C | 74% | 1009.3 hPa | - | - | - | - |
| 1778034645 | 11.11° C | 74% | 1009.4 hPa | - | - | - | - |
| 1778032844 | 11.67° C | 73% | 1009.3 hPa | - | - | - | - |
| 1778031943 | 11.67° C | 72% | 1009.4 hPa | - | - | - | - |
| 1778031042 | 12.22° C | 71% | 1009.4 hPa | - | - | - | - |
| 1778030141 | 12.22° C | 71% | 1009.5 hPa | - | - | - | - |
| 1778029240 | 12.22° C | 70% | 1009.4 hPa | - | - | - | - |
| 1778028339 | 12.22° C | 70% | 1009.6 hPa | - | - | - | - |
| 1778026538 | 12.78° C | 70% | 1009.5 hPa | - | - | - | - |
| 1778025637 | 12.78° C | 70% | 1009.5 hPa | - | - | - | - |
| 1778024736 | 12.78° C | 70% | 1009.4 hPa | - | - | - | - |
* Rain since midnight (hover to see other rain measurements)
** Current wind speed in m/s (hover to see current wind gust speed)